createdAt,value
2024-04-23T00:01:35.203Z,9.69
2024-04-23T00:04:02.458Z,9.33
2024-04-23T00:06:29.639Z,9.47
2024-04-23T00:08:56.900Z,9.42
2024-04-23T00:11:24.183Z,9.16
2024-04-23T00:13:51.443Z,9.47
2024-04-23T00:16:18.771Z,9.15
2024-04-23T00:18:46.235Z,9.07
2024-04-23T00:21:13.645Z,8.90
2024-04-23T00:23:40.919Z,9.02
2024-04-23T00:26:08.222Z,8.74
2024-04-23T00:28:35.446Z,9.18
2024-04-23T00:31:02.709Z,8.40
2024-04-23T00:33:30.160Z,9.28
2024-04-23T00:35:57.482Z,8.75
2024-04-23T00:38:24.705Z,8.92
2024-04-23T00:40:52.039Z,9.44
2024-04-23T00:43:19.465Z,8.89
2024-04-23T00:45:49.535Z,9.07
2024-04-23T00:48:19.998Z,9.41
2024-04-23T00:50:48.365Z,9.03
2024-04-23T00:53:16.233Z,9.45
2024-04-23T00:55:44.336Z,9.26
2024-04-23T00:58:12.170Z,9.22
2024-04-23T01:00:39.482Z,9.51
2024-04-23T01:03:07.024Z,9.46
2024-04-23T01:05:34.424Z,9.90
2024-04-23T01:08:01.736Z,9.38
2024-04-23T01:10:29.262Z,9.67
2024-04-23T01:12:56.637Z,9.84
2024-04-23T01:15:27.440Z,9.90
2024-04-23T01:17:58.688Z,9.25
2024-04-23T01:20:26.142Z,9.86
2024-04-23T01:23:15.388Z,9.78
2024-04-23T01:25:45.517Z,9.62
2024-04-23T01:28:17.581Z,9.69
2024-04-23T01:30:46.290Z,9.58
2024-04-23T01:33:14.094Z,10.05
2024-04-23T01:35:42.369Z,9.79
2024-04-23T01:38:11.437Z,10.07
2024-04-23T01:40:42.379Z,10.12
2024-04-23T01:43:09.816Z,10.12
2024-04-23T01:45:37.688Z,9.51
2024-04-23T01:48:06.336Z,10.08
2024-04-23T01:50:33.753Z,9.53
2024-04-23T01:53:01.124Z,9.97
2024-04-23T01:55:28.658Z,9.84
2024-04-23T01:57:55.978Z,9.86
2024-04-23T02:00:25.422Z,9.90
2024-04-23T02:02:54.881Z,9.94
2024-04-23T02:05:22.696Z,9.88
2024-04-23T02:07:50.713Z,9.95
2024-04-23T02:10:20.618Z,9.99
2024-04-23T02:12:47.970Z,10.18
2024-04-23T02:15:15.321Z,10.24
2024-04-23T02:17:43.020Z,10.03
2024-04-23T02:20:11.999Z,10.40
2024-04-23T02:22:39.429Z,10.01
2024-04-23T02:25:06.819Z,10.15
2024-04-23T02:27:34.118Z,9.75
2024-04-23T02:30:02.665Z,10.03
2024-04-23T02:32:30.267Z,9.66
2024-04-23T02:34:57.841Z,9.69
2024-04-23T02:37:25.447Z,10.26
2024-04-23T02:39:52.928Z,10.18
2024-04-23T02:42:20.339Z,10.01
2024-04-23T02:44:47.794Z,9.83
2024-04-23T02:47:15.251Z,10.13
2024-04-23T02:49:42.657Z,10.07
2024-04-23T02:52:10.488Z,9.82
2024-04-23T02:54:37.848Z,10.11
2024-04-23T02:57:05.361Z,10.24
2024-04-23T02:59:32.773Z,9.89
2024-04-23T03:02:08.096Z,10.25
2024-04-23T03:04:35.561Z,9.92
2024-04-23T03:07:03.241Z,10.17
2024-04-23T03:09:30.622Z,9.82
2024-04-23T03:11:58.226Z,9.94
2024-04-23T03:14:25.647Z,9.96
2024-04-23T03:16:53.212Z,10.09
2024-04-23T03:19:20.673Z,10.06
2024-04-23T03:21:52.349Z,9.77
2024-04-23T03:24:20.017Z,9.89
2024-04-23T03:26:47.969Z,9.75
2024-04-23T03:29:15.455Z,9.81
2024-04-23T03:32:03.856Z,9.17
2024-04-23T03:34:32.478Z,9.96
2024-04-23T03:37:00.481Z,10.12
2024-04-23T03:39:28.250Z,9.97
2024-04-23T03:41:59.965Z,10.34
2024-04-23T03:44:28.442Z,10.16
2024-04-23T03:46:57.551Z,9.76
2024-04-23T03:49:25.192Z,10.15
2024-04-23T03:51:52.628Z,10.32
2024-04-23T03:54:19.916Z,9.85
2024-04-23T03:56:47.232Z,10.39
2024-04-23T03:59:17.088Z,9.75
2024-04-23T04:01:44.563Z,10.02
2024-04-23T04:04:50.700Z,10.16
2024-04-23T04:07:17.855Z,10.22
2024-04-23T04:09:45.108Z,10.09
2024-04-23T04:12:12.479Z,9.61
2024-04-23T04:14:39.784Z,9.98
2024-04-23T04:17:07.209Z,9.98
2024-04-23T04:19:34.689Z,9.98
2024-04-23T04:22:02.230Z,9.78
2024-04-23T04:24:29.744Z,10.02
2024-04-23T04:26:57.254Z,10.06
2024-04-23T04:29:24.708Z,9.98
2024-04-23T04:31:52.215Z,10.03
2024-04-23T04:34:21.718Z,8.97
2024-04-23T04:36:49.391Z,9.98
2024-04-23T04:39:16.818Z,9.77
2024-04-23T04:41:44.264Z,9.92
2024-04-23T04:44:11.624Z,9.93
2024-04-23T04:46:39.169Z,9.82
2024-04-23T04:49:06.599Z,9.97
2024-04-23T04:51:33.937Z,9.87
2024-04-23T04:54:01.281Z,9.93
2024-04-23T04:56:29.511Z,9.90
2024-04-23T04:58:56.948Z,9.94
2024-04-23T05:01:24.291Z,10.04
2024-04-23T05:03:51.690Z,9.99
2024-04-23T05:06:19.030Z,9.86
2024-04-23T05:08:46.416Z,10.04
2024-04-23T05:11:13.733Z,9.76
2024-04-23T05:13:41.159Z,9.78
2024-04-23T05:16:08.687Z,9.48
2024-04-23T05:18:37.482Z,9.57
2024-04-23T05:21:08.418Z,9.62
2024-04-23T05:23:35.699Z,9.97
2024-04-23T05:26:03.007Z,9.82
2024-04-23T05:28:30.281Z,10.07
2024-04-23T05:31:15.962Z,10.21
2024-04-23T05:33:43.368Z,10.12
2024-04-23T05:36:10.685Z,10.07
2024-04-23T05:38:38.242Z,9.83
2024-04-23T05:41:05.873Z,9.67
2024-04-23T05:43:33.119Z,10.04
2024-04-23T05:46:00.395Z,9.99
2024-04-23T05:49:05.160Z,10.13
2024-04-23T05:52:30.504Z,10.19
2024-04-23T05:55:34.559Z,10.04
2024-04-23T05:58:02.458Z,10.30
2024-04-23T06:00:30.136Z,10.23
2024-04-23T06:02:57.686Z,10.16
2024-04-23T06:05:26.468Z,10.16
2024-04-23T06:07:55.425Z,10.53
2024-04-23T06:10:23.256Z,10.23
2024-04-23T06:12:51.452Z,10.34
2024-04-23T06:15:19.466Z,10.43
2024-04-23T06:17:48.802Z,10.49
2024-04-23T06:20:16.689Z,10.73
2024-04-23T06:22:50.228Z,10.86
2024-04-23T06:25:18.004Z,10.83
2024-04-23T06:27:45.351Z,10.56
2024-04-23T06:30:18.707Z,10.83
2024-04-23T06:32:46.297Z,10.77
2024-04-23T06:35:15.612Z,10.57
2024-04-23T06:37:43.328Z,10.89
2024-04-23T06:40:11.219Z,10.95
2024-04-23T06:42:39.725Z,11.00
2024-04-23T06:45:07.508Z,11.06
2024-04-23T06:47:35.491Z,10.97
2024-04-23T06:50:03.894Z,10.98
2024-04-23T06:52:31.644Z,11.15
2024-04-23T06:54:59.643Z,10.97
2024-04-23T06:57:27.702Z,11.15
2024-04-23T06:59:55.136Z,11.34
2024-04-23T07:02:22.732Z,11.41
2024-04-23T07:04:50.249Z,10.90
2024-04-23T07:07:17.746Z,11.39
2024-04-23T07:09:45.023Z,11.29
2024-04-23T07:12:12.279Z,10.87
2024-04-23T07:14:39.469Z,11.19
2024-04-23T07:17:06.823Z,11.69
2024-04-23T07:19:34.294Z,11.64
2024-04-23T07:22:01.789Z,11.39
2024-04-23T07:24:29.055Z,11.44
2024-04-23T07:26:56.410Z,11.60
2024-04-23T07:29:23.886Z,11.08
2024-04-23T07:31:51.272Z,10.78
2024-04-23T07:34:18.619Z,11.35
2024-04-23T07:36:46.978Z,11.18
2024-04-23T07:39:15.181Z,10.97
2024-04-23T07:41:42.836Z,11.20
2024-04-23T07:44:10.535Z,11.02
2024-04-23T07:46:38.259Z,11.20
2024-04-23T07:49:05.774Z,11.38
2024-04-23T07:51:34.231Z,11.16
2024-04-23T07:54:01.801Z,11.31
2024-04-23T07:56:29.250Z,11.35
2024-04-23T07:58:56.760Z,11.19
2024-04-23T08:01:24.288Z,11.20
2024-04-23T08:03:51.700Z,11.35
2024-04-23T08:06:19.066Z,11.29
2024-04-23T08:08:46.418Z,11.27
2024-04-23T08:11:14.175Z,11.12
2024-04-23T08:13:41.726Z,11.24
2024-04-23T08:16:09.149Z,11.41
2024-04-23T08:18:36.723Z,11.41
2024-04-23T08:21:07.359Z,11.60
2024-04-23T08:23:35.223Z,11.46
2024-04-23T08:26:10.900Z,11.53
2024-04-23T08:28:38.537Z,11.57
2024-04-23T08:31:06.114Z,11.17
2024-04-23T08:33:35.730Z,11.53
2024-04-23T08:36:03.222Z,10.90
2024-04-23T08:38:31.176Z,11.25
2024-04-23T08:41:01.818Z,11.34
2024-04-23T08:43:37.130Z,11.36
2024-04-23T08:46:05.272Z,11.40
2024-04-23T08:48:34.502Z,10.76
2024-04-23T08:51:04.572Z,11.17
2024-04-23T08:53:34.269Z,11.38
2024-04-23T08:56:07.365Z,11.04
2024-04-23T08:58:37.626Z,11.04
2024-04-23T09:01:06.619Z,10.91
2024-04-23T09:03:43.961Z,11.19
2024-04-23T09:06:12.014Z,11.02
2024-04-23T09:08:42.579Z,11.28
2024-04-23T09:11:10.448Z,11.52
2024-04-23T09:13:38.682Z,11.64
2024-04-23T09:16:06.377Z,11.79
2024-04-23T09:18:34.238Z,11.77
2024-04-23T09:21:04.003Z,11.64
2024-04-23T09:23:35.245Z,11.56
2024-04-23T09:26:05.172Z,11.75
2024-04-23T09:28:36.709Z,11.69
2024-04-23T09:31:04.880Z,11.36
2024-04-23T09:33:35.715Z,11.40
2024-04-23T09:36:15.177Z,11.68
2024-04-23T09:38:42.853Z,11.33
2024-04-23T09:41:11.787Z,11.53
2024-04-23T09:43:39.541Z,11.63
2024-04-23T09:46:10.077Z,11.47
2024-04-23T09:48:41.163Z,11.30
2024-04-23T09:51:10.641Z,11.42
2024-04-23T09:53:39.936Z,11.45
2024-04-23T09:56:11.313Z,11.52
2024-04-23T09:58:38.682Z,11.53
2024-04-23T10:01:06.689Z,10.90
2024-04-23T10:03:36.974Z,11.38
2024-04-23T10:06:14.180Z,11.38
2024-04-23T10:08:50.054Z,11.08
2024-04-23T10:12:08.200Z,11.23
2024-04-23T10:14:49.133Z,11.24
2024-04-23T10:17:34.092Z,11.15
2024-04-23T10:20:03.634Z,11.33
2024-04-23T10:22:31.434Z,11.18
2024-04-23T10:24:59.037Z,11.29
2024-04-23T10:27:28.138Z,11.21
2024-04-23T10:29:56.584Z,11.23
2024-04-23T10:32:25.515Z,11.33
2024-04-23T10:34:56.732Z,11.58
2024-04-23T10:37:25.772Z,11.29
2024-04-23T10:39:54.107Z,11.21
2024-04-23T10:42:21.512Z,11.19
2024-04-23T10:44:49.276Z,11.48
2024-04-23T10:47:16.717Z,11.20
2024-04-23T10:49:44.020Z,11.24
2024-04-23T10:52:11.342Z,11.49
2024-04-23T10:54:39.016Z,11.57
2024-04-23T10:57:11.177Z,11.29
2024-04-23T10:59:39.468Z,11.38
2024-04-23T11:02:12.004Z,11.32
2024-04-23T11:04:46.455Z,11.34
2024-04-23T11:07:25.772Z,11.42
2024-04-23T11:10:02.217Z,11.38
2024-04-23T11:12:31.478Z,11.22
2024-04-23T11:15:00.646Z,11.13
2024-04-23T11:17:30.229Z,11.02
2024-04-23T11:19:58.191Z,11.00
2024-04-23T11:22:39.089Z,11.19
2024-04-23T11:25:19.022Z,11.14
2024-04-23T11:27:46.609Z,10.94
2024-04-23T11:30:15.505Z,11.08
2024-04-23T11:32:43.171Z,10.97
2024-04-23T11:35:11.866Z,10.83
2024-04-23T11:37:40.339Z,10.93
2024-04-23T11:40:08.283Z,11.13
2024-04-23T11:42:35.676Z,10.83
2024-04-23T11:45:06.828Z,10.97
2024-04-23T11:47:37.384Z,10.81
2024-04-23T11:50:07.683Z,10.79
2024-04-23T11:52:36.362Z,10.79
2024-04-23T11:55:10.478Z,10.84
2024-04-23T11:57:40.273Z,10.97
2024-04-23T12:00:09.060Z,10.91
2024-04-23T12:02:36.529Z,10.82
2024-04-23T12:05:08.955Z,10.75
2024-04-23T12:07:37.081Z,10.74
2024-04-23T12:10:07.560Z,10.94
2024-04-23T12:12:38.288Z,10.98
2024-04-23T12:15:07.567Z,10.84
2024-04-23T12:17:42.178Z,10.82
2024-04-23T12:20:13.285Z,10.95
2024-04-23T12:22:46.658Z,10.60
2024-04-23T12:25:16.440Z,11.05
2024-04-23T12:27:48.164Z,10.42
2024-04-23T12:30:20.794Z,10.75
2024-04-23T12:32:51.708Z,11.07
2024-04-23T12:35:22.785Z,11.29
2024-04-23T12:37:59.001Z,11.39
2024-04-23T12:40:27.768Z,11.06
2024-04-23T12:42:58.094Z,11.39
2024-04-23T12:45:25.755Z,11.06
2024-04-23T12:47:58.197Z,11.16
2024-04-23T12:50:25.859Z,10.87
2024-04-23T12:52:53.178Z,11.41
2024-04-23T12:55:20.619Z,11.35
2024-04-23T12:57:48.153Z,11.33
2024-04-23T13:00:16.444Z,11.33
2024-04-23T13:02:43.956Z,11.66
2024-04-23T13:05:11.412Z,11.35
2024-04-23T13:07:38.861Z,11.76
2024-04-23T13:10:06.574Z,11.78
2024-04-23T13:12:34.049Z,12.03
2024-04-23T13:15:01.557Z,11.70
2024-04-23T13:17:28.979Z,12.04
2024-04-23T13:20:00.450Z,11.89
2024-04-23T13:22:29.032Z,12.14
2024-04-23T13:24:56.491Z,12.22
2024-04-23T13:27:23.830Z,12.16
2024-04-23T13:29:51.826Z,11.91
2024-04-23T13:32:21.698Z,12.09
2024-04-23T13:34:49.042Z,11.93
2024-04-23T13:37:16.432Z,11.96
2024-04-23T13:39:43.738Z,11.97
2024-04-23T13:42:11.055Z,11.76
2024-04-23T13:44:38.347Z,12.07
2024-04-23T13:47:05.996Z,12.09
2024-04-23T13:49:36.576Z,12.06
2024-04-23T13:52:04.632Z,11.74
2024-04-23T13:54:32.044Z,11.87
2024-04-23T13:56:59.363Z,11.63
2024-04-23T13:59:26.888Z,11.71
2024-04-23T14:01:54.531Z,11.69
2024-04-23T14:04:22.019Z,11.56
2024-04-23T14:06:51.778Z,11.69
2024-04-23T14:09:19.121Z,11.44
2024-04-23T14:11:47.239Z,11.70
2024-04-23T14:14:15.028Z,11.55
2024-04-23T14:16:42.523Z,11.54
2024-04-23T14:19:10.323Z,11.13
2024-04-23T14:21:37.718Z,11.36
2024-04-23T14:24:05.212Z,11.24
2024-04-23T14:26:32.577Z,11.32
2024-04-23T14:28:59.956Z,11.21
2024-04-23T14:31:27.465Z,11.00
2024-04-23T14:33:54.767Z,10.86
2024-04-23T14:36:22.080Z,10.89
2024-04-23T14:38:49.339Z,10.81
2024-04-23T14:41:16.705Z,10.67
2024-04-23T14:43:44.216Z,10.55
2024-04-23T14:46:13.569Z,9.79
2024-04-23T14:48:41.867Z,9.88
2024-04-23T14:51:10.570Z,10.19
2024-04-23T14:53:38.118Z,10.18
2024-04-23T14:56:07.375Z,10.11
2024-04-23T14:58:35.928Z,10.06
2024-04-23T15:01:11.017Z,9.35
2024-04-23T15:03:38.635Z,9.74
2024-04-23T15:06:09.750Z,9.86
2024-04-23T15:08:39.055Z,9.84
2024-04-23T15:11:08.587Z,9.89
2024-04-23T15:13:36.987Z,9.91
2024-04-23T15:16:08.702Z,9.99
2024-04-23T15:18:39.709Z,9.94
2024-04-23T15:21:12.118Z,9.97
2024-04-23T15:23:40.007Z,9.74
2024-04-23T15:26:07.955Z,9.95
2024-04-23T15:28:39.375Z,9.76
2024-04-23T15:31:08.610Z,9.50
2024-04-23T15:33:40.387Z,9.54
2024-04-23T15:36:13.067Z,9.72
2024-04-23T15:38:49.368Z,9.65
2024-04-23T15:41:18.003Z,9.29
2024-04-23T15:43:48.870Z,9.54
2024-04-23T15:46:16.306Z,9.69
2024-04-23T15:48:43.969Z,9.83
2024-04-23T15:51:11.631Z,9.70
2024-04-23T15:53:39.104Z,9.89
2024-04-23T15:56:07.514Z,10.13
2024-04-23T15:58:35.159Z,9.88
2024-04-23T16:01:07.243Z,10.19
2024-04-23T16:03:36.276Z,10.16
2024-04-23T16:06:04.820Z,10.28
2024-04-23T16:08:32.912Z,10.15
2024-04-23T16:11:10.766Z,9.83
2024-04-23T16:13:39.661Z,10.11
2024-04-23T16:16:07.208Z,10.06
2024-04-23T16:18:38.079Z,10.07
2024-04-23T16:21:12.538Z,9.88
2024-04-23T16:23:40.230Z,10.01
2024-04-23T16:26:08.563Z,9.87
2024-04-23T16:28:36.368Z,9.60
2024-04-23T16:31:04.831Z,9.82
2024-04-23T16:33:35.643Z,9.72
2024-04-23T16:36:08.329Z,9.71
2024-04-23T16:38:39.316Z,9.68
2024-04-23T16:41:10.278Z,9.78
2024-04-23T16:43:40.820Z,9.77
2024-04-23T16:46:14.727Z,9.47
2024-04-23T16:48:42.337Z,9.63
2024-04-23T16:51:13.598Z,9.66
2024-04-23T16:53:41.239Z,9.61
2024-04-23T16:56:11.690Z,9.39
2024-04-23T16:58:39.184Z,9.57
2024-04-23T17:01:10.497Z,9.09
2024-04-23T17:03:39.784Z,9.56
2024-04-23T17:06:07.779Z,9.24
2024-04-23T17:08:35.337Z,9.68
2024-04-23T17:11:04.234Z,8.32
2024-04-23T17:13:33.725Z,9.47
2024-04-23T17:16:12.767Z,9.61
2024-04-23T17:18:40.339Z,9.58
2024-04-23T17:21:14.153Z,9.59
2024-04-23T17:23:41.771Z,9.56
2024-04-23T17:26:09.252Z,9.21
2024-04-23T17:28:36.737Z,9.25
2024-04-23T17:31:05.285Z,9.30
2024-04-23T17:33:33.206Z,9.70
2024-04-23T17:36:01.330Z,9.77
2024-04-23T17:38:28.843Z,9.61
2024-04-23T17:40:56.426Z,9.67
2024-04-23T17:43:24.371Z,9.76
2024-04-23T17:45:52.065Z,9.61
2024-04-23T17:48:19.689Z,9.79
2024-04-23T17:50:47.236Z,9.77
2024-04-23T17:53:16.677Z,9.85
2024-04-23T17:55:46.132Z,9.78
2024-04-23T17:58:17.076Z,9.93
2024-04-23T18:00:44.730Z,9.95
2024-04-23T18:03:13.636Z,9.62
2024-04-23T18:05:42.936Z,9.91
2024-04-23T18:08:12.789Z,10.14
2024-04-23T18:10:43.136Z,9.96
2024-04-23T18:13:13.893Z,9.96
2024-04-23T18:15:47.032Z,10.21
2024-04-23T18:18:19.954Z,10.08
2024-04-23T18:20:49.281Z,10.17
2024-04-23T18:23:16.999Z,10.05
2024-04-23T18:25:52.537Z,10.07
2024-04-23T18:28:22.495Z,10.17
2024-04-23T18:30:53.103Z,10.37
2024-04-23T18:33:28.259Z,10.16
2024-04-23T18:35:57.702Z,10.35
2024-04-23T18:38:25.360Z,10.38
2024-04-23T18:40:53.144Z,10.04
2024-04-23T18:43:25.511Z,10.42
2024-04-23T18:45:53.174Z,10.41
2024-04-23T18:48:32.313Z,10.48
2024-04-23T18:51:06.777Z,10.50
2024-04-23T18:53:36.629Z,10.33
2024-04-23T18:56:12.092Z,10.57
2024-04-23T18:58:43.171Z,10.53
2024-04-23T19:01:21.545Z,10.50
2024-04-23T19:03:49.287Z,10.37
2024-04-23T19:06:24.594Z,10.72
2024-04-23T19:08:54.283Z,10.54
2024-04-23T19:11:27.500Z,10.76
2024-04-23T19:14:07.888Z,10.48
2024-04-23T19:16:44.690Z,10.74
2024-04-23T19:19:13.451Z,10.73
2024-04-23T19:21:41.212Z,10.70
2024-04-23T19:24:08.982Z,10.86
2024-04-23T19:26:36.562Z,10.87
2024-04-23T19:29:06.673Z,10.72
2024-04-23T19:31:34.292Z,10.77
2024-04-23T19:34:05.091Z,10.86
2024-04-23T19:36:32.845Z,10.71
2024-04-23T19:39:01.626Z,10.85
2024-04-23T19:41:31.980Z,10.58
2024-04-23T19:44:01.049Z,10.96
2024-04-23T19:46:29.540Z,10.94
2024-04-23T19:49:03.753Z,10.69
2024-04-23T19:51:37.488Z,10.90
2024-04-23T19:54:05.451Z,10.96
2024-04-23T19:56:56.252Z,10.87
2024-04-23T19:59:25.280Z,10.87
2024-04-23T20:01:53.030Z,10.89
2024-04-23T20:04:20.855Z,10.82
2024-04-23T20:06:50.671Z,10.97
2024-04-23T20:09:27.082Z,10.92
2024-04-23T20:11:54.904Z,10.92
2024-04-23T20:14:22.686Z,10.83
2024-04-23T20:16:50.313Z,10.76
2024-04-23T20:19:17.668Z,11.04
2024-04-23T20:21:45.047Z,10.85
2024-04-23T20:24:12.384Z,11.12
2024-04-23T20:26:39.737Z,11.12
2024-04-23T20:29:09.059Z,11.18
2024-04-23T20:31:36.410Z,10.93
2024-04-23T20:34:03.727Z,11.02
2024-04-23T20:36:30.964Z,11.11
2024-04-23T20:38:58.455Z,10.85
2024-04-23T20:41:25.868Z,10.51
2024-04-23T20:43:53.386Z,11.25
2024-04-23T20:46:22.840Z,11.06
2024-04-23T20:48:50.356Z,11.22
2024-04-23T20:51:17.735Z,11.07
2024-04-23T20:53:45.596Z,10.95
2024-04-23T20:56:12.997Z,10.95
2024-04-23T20:58:40.272Z,11.05
2024-04-23T21:01:09.646Z,10.65
2024-04-23T21:03:37.781Z,11.22
2024-04-23T21:06:13.055Z,11.34
2024-04-23T21:08:41.334Z,11.26
2024-04-23T21:11:16.545Z,10.81
2024-04-23T21:13:45.446Z,11.17
2024-04-23T21:16:16.327Z,11.17
2024-04-23T21:18:45.612Z,11.35
2024-04-23T21:21:14.987Z,11.09
2024-04-23T21:23:42.602Z,11.21
2024-04-23T21:26:10.384Z,11.33
2024-04-23T21:28:38.363Z,11.16
2024-04-23T21:31:05.929Z,11.49
2024-04-23T21:33:33.880Z,11.36
2024-04-23T21:36:05.399Z,11.54
2024-04-23T21:38:33.295Z,11.55
2024-04-23T21:41:07.861Z,11.64
2024-04-23T21:43:36.400Z,11.61
2024-04-23T21:46:07.322Z,11.51
2024-04-23T21:48:35.084Z,11.39
2024-04-23T21:51:10.135Z,11.04
2024-04-23T21:53:37.747Z,11.48
2024-04-23T21:56:06.379Z,11.35
2024-04-23T21:58:38.402Z,11.56
2024-04-23T22:01:18.502Z,11.56
2024-04-23T22:03:47.152Z,11.36
2024-04-23T22:06:15.361Z,11.69
2024-04-23T22:08:42.703Z,11.44
2024-04-23T22:11:10.433Z,11.45
2024-04-23T22:13:37.924Z,11.44
2024-04-23T22:16:05.639Z,11.41
2024-04-23T22:18:33.013Z,11.55
2024-04-23T22:21:00.340Z,11.50
2024-04-23T22:23:27.819Z,11.60
2024-04-23T22:25:55.269Z,11.73
2024-04-23T22:28:22.536Z,11.61
2024-04-23T22:30:49.908Z,11.73
2024-04-23T22:33:17.324Z,11.72
2024-04-23T22:35:44.667Z,11.71
2024-04-23T22:38:12.128Z,11.70
2024-04-23T22:40:39.485Z,11.76
2024-04-23T22:43:06.749Z,11.77
2024-04-23T22:45:34.076Z,11.58
2024-04-23T22:48:01.618Z,11.55
2024-04-23T22:50:29.126Z,11.58
2024-04-23T22:52:56.639Z,11.74
2024-04-23T22:55:23.991Z,11.52
2024-04-23T22:57:51.316Z,11.49
2024-04-23T23:00:18.745Z,11.76
2024-04-23T23:02:46.209Z,11.34
2024-04-23T23:05:13.612Z,11.64
2024-04-23T23:07:41.524Z,11.78
2024-04-23T23:10:09.179Z,11.80
2024-04-23T23:12:36.541Z,11.30
2024-04-23T23:15:06.245Z,11.74
2024-04-23T23:17:33.729Z,10.95
2024-04-23T23:20:01.219Z,11.36
2024-04-23T23:22:28.616Z,11.38
2024-04-23T23:24:55.977Z,11.58
2024-04-23T23:27:23.280Z,11.58
2024-04-23T23:29:50.637Z,11.55
2024-04-23T23:32:18.012Z,11.08
2024-04-23T23:34:45.581Z,11.75
2024-04-23T23:37:13.011Z,11.58
2024-04-23T23:39:40.365Z,11.43
2024-04-23T23:42:07.941Z,11.63
2024-04-23T23:44:35.318Z,11.41
2024-04-23T23:47:02.718Z,11.76
2024-04-23T23:49:30.115Z,11.42
2024-04-23T23:51:57.582Z,11.82
2024-04-23T23:54:25.080Z,11.47
2024-04-23T23:56:54.801Z,11.67
2024-04-23T23:59:22.157Z,11.54
